Putnam, Illinois
Current Conditions -  °F | °C
As of 4:15 PM on Monday 26 Jan 2015 (Local Time) from KC75 Reporting Station
Haze Haze  
Wind Chill: 22°   Ceiling: 1000
Heat Index: 27°   Visibility: 4mi
Dew Point: 24°   Wind: 5mph
Humidity: 88%   Direction: 180°S
Pressure: 29.86"   Gusts: NA
Location:  41.18°N, 89.4°W
Report Text: KC75 262215Z AUTO 18004KT 4SM BR OVC010 M03/M04 A2986 RMK AO2 T10271045
Loading
Personal Weather Stations






























Interactive Weather Map New forecast layout! Learn more

10-Day Weather Forecast

Advertisements
Track Severe Weather on mobile